Time;durP1;ratioP1;P1;durP2;ratioP2;P2;SDS_P1;SDS_P2;PMS_P1;PMS_P2;Temp;Humidity;BMP_temperature;BMP_pressure;BME280_temperature;BME280_humidity;BME280_pressure;Samples;Min_cycle;Max_cycle;Signal;HPM_P1;HPM_P2
2022/07/28 00:01:41;;;;;;;0.10;0.10;;;;;;;22.75;54.43;101551.78;5139533;27;20043;-36
2022/07/28 00:04:07;;;;;;;0.10;0.10;;;;;;;22.74;54.60;101553.75;5141276;27;20035;-38
2022/07/28 00:06:32;;;;;;;0.10;0.10;;;;;;;22.75;54.57;101551.78;5140124;27;20039;-36
2022/07/28 00:08:58;;;;;;;0.10;0.10;;;;;;;22.74;54.69;101555.69;5121348;27;20081;-37
2022/07/28 00:11:24;;;;;;;0.10;0.10;;;;;;;22.74;54.37;101550.16;5141376;27;20058;-37
2022/07/28 00:13:49;;;;;;;0.10;0.10;;;;;;;22.75;54.46;101560.13;5117812;27;20047;-36
2022/07/28 00:16:15;;;;;;;0.10;0.10;;;;;;;22.74;54.56;101550.97;5139025;27;20376;-37
2022/07/28 00:18:41;;;;;;;0.10;0.10;;;;;;;22.74;54.54;101548.19;5142938;27;20044;-35
2022/07/28 00:21:06;;;;;;;0.10;0.10;;;;;;;22.74;54.65;101550.16;5142661;27;20042;-37
2022/07/28 00:23:32;;;;;;;0.10;0.10;;;;;;;22.74;54.42;101545.41;5145266;27;20042;-37
2022/07/28 00:26:06;;;;;;;0.10;0.10;;;;;;;22.75;54.54;101544.31;5138716;27;20047;-37
2022/07/28 00:28:32;;;;;;;0.10;0.10;;;;;;;22.74;54.44;101534.31;5137824;27;20122;-37
2022/07/28 00:30:57;;;;;;;0.10;0.10;;;;;;;22.74;54.48;101534.31;5147098;27;20480;-36
2022/07/28 00:33:30;;;;;;;0.10;0.10;;;;;;;22.74;54.45;101533.47;5141470;27;20050;-39
2022/07/28 00:35:56;;;;;;;0.10;0.10;;;;;;;22.74;54.40;101534.31;5143892;27;20458;-36
2022/07/28 00:38:21;;;;;;;0.10;0.10;;;;;;;22.74;54.46;101536.25;5141360;27;20051;-37
2022/07/28 00:41:19;;;;;;;0.10;0.10;;;;;;;22.73;54.47;101531.84;5140722;27;20466;-37
2022/07/28 00:43:34;;;;;;;0.10;0.10;;;;;;;22.74;54.47;101534.31;5125620;27;20081;-39
2022/07/28 00:45:59;;;;;;;0.10;0.10;;;;;;;22.74;54.56;101525.16;5138668;27;20043;-36
2022/07/28 00:48:25;;;;;;;0.10;0.10;;;;;;;22.75;54.52;101529.59;5126245;27;20042;-37
2022/07/28 00:50:51;;;;;;;0.10;0.10;;;;;;;22.73;54.52;101529.88;5139300;27;20176;-36
2022/07/28 00:53:17;;;;;;;0.10;0.10;;;;;;;22.74;54.40;101514.03;5122134;27;20055;-37
2022/07/28 00:55:42;;;;;;;0.10;0.10;;;;;;;22.74;54.58;101522.38;5143024;27;20077;-37
2022/07/28 00:58:28;;;;;;;0.10;0.10;;;;;;;22.73;54.44;101524.31;5123045;27;20094;-39
2022/07/28 01:00:55;;;;;;;0.10;0.10;;;;;;;22.73;54.41;101524.31;5139821;27;20071;-37
2022/07/28 01:03:21;;;;;;;0.10;0.10;;;;;;;22.73;54.60;101518.78;5137974;27;20489;-37
2022/07/28 01:06:10;;;;;;;0.10;0.10;;;;;;;22.74;54.33;101523.19;5140721;27;20046;-37
2022/07/28 01:09:10;;;;;;;0.10;0.10;;;;;;;22.75;54.38;101524.88;5125095;27;20050;-37
2022/07/28 01:11:49;;;;;;;0.10;0.10;;;;;;;22.73;54.45;101510.44;5128629;27;20149;-37
2022/07/28 01:14:54;;;;;;;0.10;0.10;;;;;;;22.73;54.37;101513.22;5136969;27;20070;-37
2022/07/28 01:17:48;;;;;;;0.10;0.10;;;;;;;22.73;54.37;101516.00;5111370;27;20758;-37
2022/07/28 01:20:16;;;;;;;0.10;0.10;;;;;;;22.73;54.46;101504.91;5143391;27;20074;-37
2022/07/28 01:22:54;;;;;;;;;;;;;;;22.73;54.31;101513.22;5137400;27;20492;-37
2022/07/28 01:25:25;;;;;;;0.10;0.10;;;;;;;22.74;54.25;101519.59;5138059;27;19970;-37
2022/07/28 01:28:00;;;;;;;0.10;0.10;;;;;;;22.73;54.46;101520.72;5119535;27;20070;-39
2022/07/28 01:30:32;;;;;;;0.10;0.10;;;;;;;22.73;54.34;101515.19;5126416;27;20085;-37
2022/07/28 01:33:00;;;;;;;0.10;0.10;;;;;;;22.73;54.52;101516.00;5129451;27;20493;-36
2022/07/28 01:35:29;;;;;;;0.10;0.10;;;;;;;22.73;54.40;101518.78;5143714;27;20458;-37
2022/07/28 01:37:57;;;;;;;0.10;0.10;;;;;;;22.73;54.47;101512.41;5131801;27;20130;-37
2022/07/28 01:40:25;;;;;;;0.10;0.10;;;;;;;22.74;54.37;101514.88;5123582;27;20386;-37
2022/07/28 01:42:53;;;;;;;0.10;0.10;;;;;;;22.74;54.30;101509.31;5140520;27;20469;-39
2022/07/28 01:45:19;;;;;;;0.10;0.10;;;;;;;22.74;54.29;101509.31;5115278;27;20155;-39
2022/07/28 01:47:46;;;;;;;0.10;0.10;;;;;;;22.74;54.36;101502.94;5145509;27;20077;-37
2022/07/28 01:50:13;;;;;;;0.10;0.10;;;;;;;22.75;54.38;101501.81;5143384;27;20138;-39
2022/07/28 01:52:40;;;;;;;0.10;0.10;;;;;;;22.74;54.30;101498.22;5123300;27;20095;-37
2022/07/28 01:55:06;;;;;;;0.10;0.10;;;;;;;22.74;54.24;101494.63;5147993;27;20145;-37
2022/07/28 01:57:32;;;;;;;0.10;0.10;;;;;;;22.75;54.32;101499.03;5139610;27;20120;-38
2022/07/28 01:59:59;;;;;;;0.10;0.10;;;;;;;22.74;54.38;101501.00;5140936;27;20050;-39
2022/07/28 02:02:26;;;;;;;0.13;0.13;;;;;;;22.74;54.35;101498.22;5144162;27;20070;-37
2022/07/28 02:04:54;;;;;;;0.10;0.10;;;;;;;22.73;54.26;101487.41;5146592;27;20476;-39
2022/07/28 02:07:20;;;;;;;;;;;;;;;22.74;54.33;101486.28;5127444;27;20144;-40
2022/07/28 02:09:46;;;;;;;0.10;0.10;;;;;;;22.72;54.40;101486.59;5141365;27;19926;-38
2022/07/28 02:12:16;;;;;;;0.20;0.20;;;;;;;22.74;54.39;101486.28;5139148;27;20082;-37
2022/07/28 02:14:43;;;;;;;0.10;0.10;;;;;;;22.74;54.33;101486.28;5121663;27;20579;-38
2022/07/28 02:17:11;;;;;;;0.10;0.10;;;;;;;22.74;54.36;101486.28;5143218;27;20163;-38
2022/07/28 02:19:38;;;;;;;0.10;0.10;;;;;;;22.73;54.36;101488.22;5126628;27;20090;-36
2022/07/28 02:22:04;;;;;;;0.10;0.10;;;;;;;22.73;54.33;101482.69;5126747;27;20074;-39
2022/07/28 02:24:30;;;;;;;0.10;0.10;;;;;;;22.73;54.40;101474.34;5143723;27;20074;-38
2022/07/28 02:26:59;;;;;;;0.10;0.10;;;;;;;22.76;54.30;101481.28;5141394;27;20074;-39
2022/07/28 02:29:26;;;;;;;0.10;0.10;;;;;;;22.75;54.46;101474.03;5144100;27;20174;-39
2022/07/28 02:32:17;;;;;;;0.10;0.10;;;;;;;22.75;54.35;101474.03;5131105;27;20047;-37
2022/07/28 02:34:58;;;;;;;0.10;0.10;;;;;;;22.74;54.27;101464.88;5125590;27;20039;-39
2022/07/28 02:37:25;;;;;;;0.10;0.10;;;;;;;22.75;54.31;101468.50;5141561;27;20069;-39
2022/07/28 02:39:53;;;;;;;0.10;0.10;;;;;;;22.74;54.36;101472.41;5141200;27;20069;-39
2022/07/28 02:42:27;;;;;;;0.10;0.10;;;;;;;22.73;54.36;101460.47;5141730;27;20078;-39
2022/07/28 02:44:58;;;;;;;0.10;0.10;;;;;;;22.73;54.27;101460.47;5140706;27;20074;-37
2022/07/28 02:47:25;;;;;;;0.10;0.10;;;;;;;22.73;54.38;101457.69;5121713;27;20049;-40
2022/07/28 02:49:53;;;;;;;0.10;0.10;;;;;;;22.73;54.40;101452.13;5139941;27;20070;-39
2022/07/28 02:52:21;;;;;;;0.10;0.10;;;;;;;22.74;54.21;101452.97;5145180;27;20511;-39
2022/07/28 02:54:48;;;;;;;0.17;0.17;;;;;;;22.73;54.45;101446.59;5126175;27;20484;-37
2022/07/28 02:57:15;;;;;;;0.20;0.20;;;;;;;22.73;54.32;101448.53;5144245;27;20477;-37
2022/07/28 02:59:41;;;;;;;0.10;0.10;;;;;;;22.73;54.35;101452.13;5124243;27;20162;-39
2022/07/28 03:02:08;;;;;;;0.10;0.10;;;;;;;22.74;54.36;101445.47;5140137;27;20139;-37
2022/07/28 03:05:06;;;;;;;0.10;0.10;;;;;;;22.73;54.38;101452.13;5122023;27;20073;-39
2022/07/28 03:07:19;;;;;;;0.10;0.10;;;;;;;22.74;54.32;101450.19;5124855;27;20570;-39
2022/07/28 03:09:47;;;;;;;0.10;0.10;;;;;;;22.73;54.36;101449.38;5123535;27;20392;-37
2022/07/28 03:12:13;;;;;;;0.10;0.10;;;;;;;22.72;54.33;101446.88;5142950;27;20149;-37
2022/07/28 03:14:39;;;;;;;0.10;0.10;;;;;;;22.74;54.33;101444.63;5139072;27;20076;-39
2022/07/28 03:17:05;;;;;;;0.10;0.10;;;;;;;22.73;54.17;101445.75;5125638;27;20078;-39
2022/07/28 03:19:31;;;;;;;0.10;0.10;;;;;;;22.74;54.26;101453.78;5140806;27;20469;-38
2022/07/28 03:21:57;;;;;;;0.10;0.10;;;;;;;22.74;54.26;101451.00;5139383;27;20050;-38
2022/07/28 03:24:24;;;;;;;0.10;0.10;;;;;;;22.74;54.13;101461.28;5137710;27;20042;-38
2022/07/28 03:26:57;;;;;;;0.10;0.10;;;;;;;22.73;54.29;101456.88;5145043;27;20035;-37
2022/07/28 03:29:24;;;;;;;0.10;0.10;;;;;;;22.73;54.30;101452.13;5120811;27;20130;-37
2022/07/28 03:31:53;;;;;;;0.10;0.10;;;;;;;22.74;54.29;101455.75;5124391;27;20075;-38
2022/07/28 03:34:19;;;;;;;0.10;0.10;;;;;;;22.75;54.08;101460.16;5142019;27;20078;-40
2022/07/28 03:36:46;;;;;;;0.10;0.10;;;;;;;22.72;54.16;101464.38;5140033;27;20069;-39
2022/07/28 03:39:14;;;;;;;0.10;0.10;;;;;;;22.73;54.36;101457.69;5141680;27;20082;-40
2022/07/28 03:41:41;;;;;;;0.10;0.10;;;;;;;22.72;54.28;101460.78;5142630;27;20191;-39
2022/07/28 03:44:09;;;;;;;0.10;0.10;;;;;;;22.73;54.17;101463.25;5137580;27;20074;-37
2022/07/28 03:46:35;;;;;;;0.10;0.10;;;;;;;22.73;54.38;101466.03;5123732;27;20520;-37
2022/07/28 03:49:00;;;;;;;0.10;0.10;;;;;;;22.73;54.24;101463.25;5141444;27;20042;-39
2022/07/28 03:51:28;;;;;;;0.10;0.10;;;;;;;22.72;54.41;101471.88;5142621;27;20046;-37
2022/07/28 03:53:54;;;;;;;0.10;0.10;;;;;;;22.73;54.19;101470.75;5144067;27;20067;-38
2022/07/28 03:56:19;;;;;;;0.10;0.10;;;;;;;22.72;54.26;101478.25;5144259;27;20470;-38
2022/07/28 03:58:45;;;;;;;0.10;0.10;;;;;;;22.72;54.20;101475.47;5141982;27;20134;-37
2022/07/28 04:01:11;;;;;;;0.10;0.10;;;;;;;22.73;54.28;101470.75;5140470;27;20046;-38
2022/07/28 04:03:36;;;;;;;0.10;0.10;;;;;;;22.72;54.17;101464.38;5124108;27;20054;-38
2022/07/28 04:06:11;;;;;;;0.10;0.10;;;;;;;22.72;54.22;101464.38;5146067;27;20046;-38
2022/07/28 04:08:37;;;;;;;0.20;0.20;;;;;;;22.74;54.30;101461.28;5142127;27;20467;-38
2022/07/28 04:11:02;;;;;;;0.10;0.10;;;;;;;22.73;54.06;101466.03;5141618;27;20046;-38
2022/07/28 04:13:30;;;;;;;0.10;0.10;;;;;;;22.73;54.05;101466.03;5145035;27;20050;-39
2022/07/28 04:15:56;;;;;;;0.10;0.10;;;;;;;22.74;54.10;101464.06;5138815;27;20073;-39
2022/07/28 04:18:22;;;;;;;0.10;0.10;;;;;;;22.73;54.15;101470.75;5141540;27;20066;-37
2022/07/28 04:20:48;;;;;;;0.10;0.10;;;;;;;22.72;54.45;101458.00;5141268;27;20105;-37
2022/07/28 04:23:13;;;;;;;0.10;0.10;;;;;;;22.74;54.28;101461.28;5137550;27;20050;-37
2022/07/28 04:25:39;;;;;;;0.10;0.10;;;;;;;22.74;54.35;101455.75;5143206;27;20049;-37
2022/07/28 04:28:05;;;;;;;0.10;0.10;;;;;;;22.74;54.24;101461.28;5143884;27;20066;-38
2022/07/28 04:30:31;;;;;;;0.10;0.10;;;;;;;22.72;54.31;101453.25;5140902;27;20454;-39
2022/07/28 04:32:56;;;;;;;0.10;0.10;;;;;;;22.72;54.14;101456.03;5139951;27;20047;-37
2022/07/28 04:35:23;;;;;;;0.10;0.10;;;;;;;22.72;54.23;101453.25;5141899;27;20042;-38
2022/07/28 04:37:50;;;;;;;0.10;0.10;;;;;;;22.73;54.07;101465.19;5126236;27;20070;-38
2022/07/28 04:40:15;;;;;;;0.10;0.10;;;;;;;22.73;54.20;101454.09;5119061;27;20122;-38
2022/07/28 04:42:41;;;;;;;0.10;0.10;;;;;;;22.73;54.23;101454.91;5139479;27;20040;-36
2022/07/28 04:45:10;;;;;;;0.10;0.10;;;;;;;22.72;54.18;101458.81;5136869;27;20039;-38
2022/07/28 04:47:36;;;;;;;0.10;0.10;;;;;;;22.73;54.14;101462.41;5122094;27;20185;-39
2022/07/28 04:50:03;;;;;;;0.10;0.10;;;;;;;22.73;54.07;101460.47;5125352;27;20043;-37
2022/07/28 04:52:28;;;;;;;0.10;0.10;;;;;;;22.71;54.01;101454.41;5141603;27;20067;-37
2022/07/28 04:54:54;;;;;;;0.10;0.10;;;;;;;22.71;54.18;101459.94;5142362;27;20082;-37
2022/07/28 04:57:20;;;;;;;0.10;0.10;;;;;;;22.73;54.20;101459.66;5143761;27;20388;-37
2022/07/28 04:59:47;;;;;;;0.10;0.10;;;;;;;22.73;54.15;101459.66;5142522;27;20039;-38
2022/07/28 05:02:15;;;;;;;;;;;;;;;22.72;54.13;101464.38;5141995;27;20098;-38
2022/07/28 05:04:42;;;;;;;0.10;0.10;;;;;;;22.70;54.24;101466.59;5147797;27;19919;-39
2022/07/28 05:07:07;;;;;;;0.10;0.10;;;;;;;22.74;53.96;101464.06;5124048;27;20041;-37
2022/07/28 05:09:38;;;;;;;0.10;0.10;;;;;;;22.73;53.99;101465.19;5144485;27;20059;-37
2022/07/28 05:12:05;;;;;;;0.10;0.10;;;;;;;22.72;53.98;101461.59;5145056;27;20047;-37
2022/07/28 05:14:31;;;;;;;0.10;0.10;;;;;;;22.72;53.98;101469.91;5140527;27;20075;-37
2022/07/28 05:16:56;;;;;;;0.10;0.10;;;;;;;22.72;54.09;101469.09;5142671;27;20457;-39
2022/07/28 05:19:22;;;;;;;0.10;0.10;;;;;;;22.72;54.24;101460.78;5139469;27;20188;-37
2022/07/28 05:21:48;;;;;;;0.10;0.10;;;;;;;22.73;54.04;101459.66;5123196;27;20437;-37
2022/07/28 05:24:14;;;;;;;0.10;0.10;;;;;;;22.72;54.05;101461.59;5141870;27;20083;-37
2022/07/28 05:26:40;;;;;;;0.10;0.10;;;;;;;22.73;54.14;101465.19;5122180;27;20073;-37
2022/07/28 05:29:06;;;;;;;0.20;0.20;;;;;;;22.73;54.12;101463.25;5141992;27;20091;-37
2022/07/28 05:31:32;;;;;;;0.20;0.20;;;;;;;22.72;54.07;101458.00;5125681;27;20483;-35
2022/07/28 05:33:59;;;;;;;0.13;0.13;;;;;;;22.70;54.32;101452.72;5124552;27;20420;-37
2022/07/28 05:36:25;;;;;;;0.10;0.10;;;;;;;22.72;54.16;101455.22;5139134;27;20074;-37
2022/07/28 05:38:51;;;;;;;0.15;0.15;;;;;;;22.72;54.01;101458.00;5143598;27;20081;-37
2022/07/28 05:41:16;;;;;;;0.10;0.10;;;;;;;22.72;54.12;101456.03;5124866;27;20046;-36
2022/07/28 05:43:42;;;;;;;0.10;0.10;;;;;;;22.72;54.16;101456.03;5126181;27;20050;-36
2022/07/28 05:46:08;;;;;;;0.10;0.10;;;;;;;22.72;54.08;101452.44;5123278;27;20050;-37
2022/07/28 05:48:33;;;;;;;0.10;0.10;;;;;;;22.71;54.08;101451.63;5146005;27;20043;-37
2022/07/28 05:50:59;;;;;;;0.10;0.10;;;;;;;22.73;54.19;101448.53;5144594;27;20043;-37
2022/07/28 05:53:25;;;;;;;0.10;0.10;;;;;;;22.71;53.90;101459.94;5139197;27;20046;-38
2022/07/28 05:55:51;;;;;;;0.10;0.10;;;;;;;22.70;54.43;101454.66;5122660;27;20139;-39
2022/07/28 05:58:26;;;;;;;0.10;0.10;;;;;;;22.70;54.09;101458.25;5146221;27;20047;-39
2022/07/28 06:00:52;;;;;;;0.10;0.10;;;;;;;22.71;54.09;101453.53;5143174;27;20070;-36
2022/07/28 06:03:18;;;;;;;0.10;0.10;;;;;;;22.70;54.26;101451.88;5137257;27;20040;-37
2022/07/28 06:05:43;;;;;;;0.10;0.10;;;;;;;22.70;54.10;101452.72;5145862;27;20039;-37
2022/07/28 06:08:29;;;;;;;0.10;0.10;;;;;;;22.72;54.03;101449.66;5127059;27;20055;-37
2022/07/28 06:10:58;;;;;;;0.10;0.10;;;;;;;22.71;54.08;101450.75;5140677;27;20039;-37
2022/07/28 06:13:24;;;;;;;0.10;0.10;;;;;;;22.71;54.07;101451.63;5138861;27;20074;-34
2022/07/28 06:15:51;;;;;;;0.10;0.10;;;;;;;22.72;54.03;101452.44;5139299;27;20074;-37
2022/07/28 06:18:18;;;;;;;0.10;0.10;;;;;;;22.72;54.08;101449.66;5123503;27;20508;-39
2022/07/28 06:20:44;;;;;;;0.10;0.10;;;;;;;22.71;53.99;101448.84;5122623;27;20514;-39
2022/07/28 06:23:10;;;;;;;0.10;0.10;;;;;;;22.71;53.88;101457.16;5137086;27;20090;-38
2022/07/28 06:25:36;;;;;;;0.10;0.10;;;;;;;22.71;54.08;101457.16;5141132;27;20035;-35
2022/07/28 06:28:02;;;;;;;0.10;0.10;;;;;;;22.70;54.08;101455.50;5124397;27;20043;-37
2022/07/28 06:30:29;;;;;;;0.10;0.10;;;;;;;22.71;54.32;101450.75;5121483;27;20082;-38
2022/07/28 06:32:55;;;;;;;0.10;0.10;;;;;;;22.70;54.41;101449.13;5125952;27;20079;-37
2022/07/28 06:35:21;;;;;;;0.10;0.10;;;;;;;22.71;54.02;101448.84;5124351;27;20093;-37
2022/07/28 06:37:48;;;;;;;0.10;0.10;;;;;;;22.72;54.00;101464.38;5146877;27;20100;-37
2022/07/28 06:40:15;;;;;;;0.10;0.10;;;;;;;22.71;54.00;101470.19;5142559;27;20086;-39
2022/07/28 06:42:41;;;;;;;0.10;0.10;;;;;;;22.71;54.07;101462.72;5139746;27;20081;-37
2022/07/28 06:45:08;;;;;;;0.10;0.10;;;;;;;22.70;54.14;101458.25;5143670;27;20039;-36
2022/07/28 06:47:45;;;;;;;0.20;0.20;;;;;;;22.70;53.93;101452.72;5145515;27;20469;-36
2022/07/28 06:50:13;;;;;;;0.10;0.10;;;;;;;22.70;54.02;101452.72;5126277;27;20039;-37
2022/07/28 06:52:54;;;;;;;0.10;0.10;;;;;;;22.71;53.91;101453.53;5146347;27;20154;-37
2022/07/28 06:55:20;;;;;;;;;;;;;;;22.71;53.89;101450.75;5119652;27;20043;-39
2022/07/28 06:57:46;;;;;;;0.10;0.10;;;;;;;22.72;54.00;101452.44;5139962;27;19933;-37
2022/07/28 07:00:13;;;;;;;0.10;0.10;;;;;;;22.70;53.96;101451.88;5144317;27;20442;-38
2022/07/28 07:02:39;;;;;;;0.10;0.10;;;;;;;22.69;54.00;101453.00;5125204;27;20130;-37
2022/07/28 07:05:06;;;;;;;0.10;0.10;;;;;;;22.71;54.05;101454.41;5146687;27;20477;-37
2022/07/28 07:07:31;;;;;;;0.10;0.10;;;;;;;22.71;54.09;101450.75;5125071;27;20066;-37
2022/07/28 07:09:57;;;;;;;0.10;0.10;;;;;;;22.70;54.25;101447.16;5140956;27;20051;-36
2022/07/28 07:12:23;;;;;;;0.10;0.10;;;;;;;22.72;54.09;101446.88;5139277;27;20043;-38
2022/07/28 07:14:48;;;;;;;0.10;0.10;;;;;;;22.70;54.11;101440.78;5141208;27;20075;-36
2022/07/28 07:17:14;;;;;;;0.10;0.10;;;;;;;22.70;53.95;101441.59;5140464;27;20092;-36
2022/07/28 07:19:40;;;;;;;0.10;0.10;;;;;;;22.70;53.99;101438.84;5139284;27;20388;-36
2022/07/28 07:22:05;;;;;;;0.10;0.10;;;;;;;22.69;53.99;101434.41;5140191;27;20039;-38
2022/07/28 07:24:31;;;;;;;0.10;0.10;;;;;;;22.69;54.34;101433.59;5140011;27;20083;-38
2022/07/28 07:26:57;;;;;;;0.10;0.10;;;;;;;22.70;53.95;101435.22;5140495;27;20070;-36
2022/07/28 07:29:23;;;;;;;0.10;0.10;;;;;;;22.71;54.00;101434.09;5142637;27;20038;-37
2022/07/28 07:31:48;;;;;;;0.10;0.10;;;;;;;22.70;53.78;101436.06;5142687;27;20472;-37
2022/07/28 07:34:18;;;;;;;0.10;0.10;;;;;;;22.70;54.08;101432.44;5119099;27;20411;-38
2022/07/28 07:36:44;;;;;;;0.10;0.10;;;;;;;22.70;54.06;101429.69;5144196;27;20038;-37
2022/07/28 07:39:10;;;;;;;0.10;0.10;;;;;;;22.70;53.81;101426.91;5144931;27;20413;-38
2022/07/28 07:41:36;;;;;;;0.10;0.10;;;;;;;22.70;53.95;101438.84;5138119;27;20039;-38
2022/07/28 07:44:03;;;;;;;0.10;0.10;;;;;;;22.70;53.96;101429.69;5142277;27;20050;-39
2022/07/28 07:46:29;;;;;;;0.10;0.10;;;;;;;22.71;54.06;101428.53;5139779;27;20039;-38
2022/07/28 07:48:54;;;;;;;0.10;0.10;;;;;;;22.71;54.17;101436.88;5140780;27;20045;-37
2022/07/28 07:51:20;;;;;;;0.10;0.10;;;;;;;22.70;53.92;101432.44;5142649;27;20413;-36
2022/07/28 07:53:46;;;;;;;0.10;0.10;;;;;;;22.70;54.15;101426.91;5138462;27;20062;-38
2022/07/28 07:56:13;;;;;;;0.10;0.10;;;;;;;22.69;54.06;101434.41;5145852;27;20035;-38
2022/07/28 07:58:38;;;;;;;0.10;0.10;;;;;;;22.70;54.43;101438.84;5146912;27;20080;-39
2022/07/28 08:01:04;;;;;;;0.10;0.10;;;;;;;22.69;54.03;101431.63;5138328;27;20103;-37
2022/07/28 08:03:30;;;;;;;0.10;0.10;;;;;;;22.70;54.11;101432.44;5138407;27;20051;-38
2022/07/28 08:05:58;;;;;;;0.10;0.10;;;;;;;22.69;54.19;101437.19;5141244;27;21220;-37
2022/07/28 08:08:25;;;;;;;0.10;0.10;;;;;;;22.71;53.81;101425.78;5143262;27;20047;-37
2022/07/28 08:10:51;;;;;;;0.10;0.10;;;;;;;22.70;53.89;101433.28;5140533;27;20039;-36
2022/07/28 08:13:19;;;;;;;0.10;0.10;;;;;;;22.69;54.00;101431.63;5136141;27;20465;-39
2022/07/28 08:15:46;;;;;;;0.10;0.10;;;;;;;22.69;54.23;101425.25;5144360;27;20091;-36
2022/07/28 08:18:12;;;;;;;0.10;0.10;;;;;;;22.69;54.12;101431.63;5139523;27;20042;-38
2022/07/28 08:20:37;;;;;;;0.15;0.10;;;;;;;22.70;54.00;101424.94;5120211;27;20092;-38
2022/07/28 08:23:07;;;;;;;0.10;0.10;;;;;;;22.70;54.00;101418.56;5138088;27;20099;-36
2022/07/28 08:25:35;;;;;;;0.10;0.10;;;;;;;22.70;53.81;101413.03;5122822;27;20054;-37
2022/07/28 08:28:01;;;;;;;0.10;0.10;;;;;;;22.70;54.01;101418.56;5121650;27;20077;-37
2022/07/28 08:30:27;;;;;;;0.10;0.10;;;;;;;22.69;54.15;101414.97;5120475;27;20051;-38
2022/07/28 08:32:58;;;;;;;0.10;0.10;;;;;;;22.69;54.31;101408.59;5140565;27;20130;-36
2022/07/28 08:35:24;;;;;;;0.10;0.10;;;;;;;22.69;54.29;101409.41;5139253;27;20043;-38
2022/07/28 08:38:06;;;;;;;0.10;0.10;;;;;;;22.69;53.87;101406.63;5144948;27;20053;-37
2022/07/28 08:40:34;;;;;;;0.10;0.10;;;;;;;22.69;53.93;101412.19;5144894;27;20039;-36
2022/07/28 08:43:27;;;;;;;0.10;0.10;;;;;;;22.69;54.16;101408.59;5124380;27;20456;-37
2022/07/28 08:45:53;;;;;;;0.10;0.10;;;;;;;22.70;54.12;101404.69;5140663;27;20078;-38
2022/07/28 08:48:24;;;;;;;0.10;0.10;;;;;;;22.70;53.87;101404.69;5120896;27;20060;-38
2022/07/28 08:50:51;;;;;;;0.10;0.10;;;;;;;22.69;53.94;101397.50;5143835;27;20078;-38
2022/07/28 08:53:19;;;;;;;0.10;0.10;;;;;;;22.69;54.09;101401.09;5143216;27;20074;-38
2022/07/28 08:55:46;;;;;;;0.10;0.10;;;;;;;22.69;54.16;101394.72;5124523;27;20073;-37
2022/07/28 08:58:12;;;;;;;0.10;0.10;;;;;;;22.69;54.42;101398.31;5144779;27;20077;-37
2022/07/28 09:00:38;;;;;;;0.10;0.10;;;;;;;22.69;54.10;101389.16;5143702;27;20043;-37
2022/07/28 09:03:04;;;;;;;0.10;0.10;;;;;;;22.69;54.20;101395.53;5139444;27;20380;-39
2022/07/28 09:05:30;;;;;;;0.10;0.10;;;;;;;22.70;53.95;101393.59;5140907;27;20133;-37
2022/07/28 09:07:57;;;;;;;0.10;0.10;;;;;;;22.71;53.85;101395.22;5144397;27;20091;-37
2022/07/28 09:10:23;;;;;;;0.10;0.10;;;;;;;22.69;54.16;101398.31;5146563;27;20488;-39
2022/07/28 09:12:49;;;;;;;0.10;0.10;;;;;;;22.70;53.85;101397.19;5146128;27;20042;-37
2022/07/28 09:15:14;;;;;;;0.10;0.10;;;;;;;22.70;54.17;101396.34;5140678;27;20035;-37
2022/07/28 09:17:40;;;;;;;0.10;0.10;;;;;;;22.68;53.92;101393.06;5139413;27;20046;-37
2022/07/28 09:20:07;;;;;;;0.10;0.10;;;;;;;22.69;54.18;101392.75;5146127;27;20075;-38
2022/07/28 09:22:53;;;;;;;0.10;0.10;;;;;;;22.68;54.32;101388.34;5147359;27;20039;-37
2022/07/28 09:25:19;;;;;;;0.10;0.10;;;;;;;22.68;54.35;101393.88;5115682;27;20092;-37
2022/07/28 09:27:44;;;;;;;0.10;0.10;;;;;;;22.69;53.96;101400.25;5148161;27;20034;-38
2022/07/28 09:30:11;;;;;;;0.10;0.10;;;;;;;22.69;54.24;101394.72;5145106;27;20034;-37
2022/07/28 09:32:37;;;;;;;0.15;0.15;;;;;;;22.69;54.17;101397.50;5141752;27;20063;-38
2022/07/28 09:35:02;;;;;;;0.10;0.10;;;;;;;22.69;54.27;101392.75;5141193;27;20104;-38
2022/07/28 09:37:28;;;;;;;0.10;0.10;;;;;;;22.67;54.22;101395.03;5145724;27;20047;-37
2022/07/28 09:39:59;;;;;;;0.10;0.10;;;;;;;22.69;54.14;101383.59;5140854;27;20046;-36
2022/07/28 09:42:25;;;;;;;0.10;0.10;;;;;;;22.69;54.02;101380.84;5144449;27;20088;-37
2022/07/28 09:45:07;;;;;;;0.10;0.10;;;;;;;22.70;53.96;101388.03;5122499;27;20051;-36
2022/07/28 09:48:07;;;;;;;0.10;0.10;;;;;;;22.68;54.45;101391.13;5119138;27;20046;-38
2022/07/28 09:50:33;;;;;;;0.10;0.10;;;;;;;22.68;54.01;101380.00;5143188;27;20043;-39
2022/07/28 09:53:01;;;;;;;0.10;0.10;;;;;;;22.69;53.61;101375.28;5141770;27;20123;-38
2022/07/28 09:55:26;;;;;;;0.10;0.10;;;;;;;22.69;54.12;101372.50;5143383;27;20081;-36
2022/07/28 09:57:54;;;;;;;0.10;0.10;;;;;;;22.68;54.11;101376.41;5142604;27;20050;-36
2022/07/28 10:00:24;;;;;;;;;;;;;;;22.69;54.08;101367.78;5140856;27;20046;-37
2022/07/28 10:02:53;;;;;;;0.10;0.10;;;;;;;22.69;53.85;101364.16;5146588;27;20009;-36
2022/07/28 10:05:19;;;;;;;0.10;0.10;;;;;;;22.68;54.24;101363.34;5143166;27;20043;-39
2022/07/28 10:07:49;;;;;;;0.10;0.10;;;;;;;22.68;54.30;101368.06;5138920;27;20134;-37
2022/07/28 10:10:19;;;;;;;0.10;0.10;;;;;;;22.68;54.11;101363.34;5124020;27;20090;-39
2022/07/28 10:12:44;;;;;;;0.10;0.10;;;;;;;22.68;54.30;101354.19;5144601;27;20078;-37
2022/07/28 10:18:01;;;;;;;0.10;0.10;;;;;;;22.68;53.90;101360.56;5111296;27;20091;-38
2022/07/28 10:20:28;;;;;;;0.10;0.10;;;;;;;22.70;54.03;101360.25;5124504;27;20126;-37
2022/07/28 10:22:59;;;;;;;0.10;0.10;;;;;;;22.69;53.99;101353.88;5144679;27;20077;-37
2022/07/28 10:25:26;;;;;;;0.10;0.10;;;;;;;22.68;54.18;101357.78;5138925;27;20075;-40
2022/07/28 10:27:53;;;;;;;0.10;0.10;;;;;;;22.69;53.51;101356.66;5141116;27;20071;-39
2022/07/28 10:30:18;;;;;;;0.10;0.10;;;;;;;22.70;53.01;101349.97;5140986;27;20079;-37
2022/07/28 10:32:44;;;;;;;0.10;0.10;;;;;;;22.70;53.45;101352.75;5142346;27;20038;-39
2022/07/28 10:35:12;;;;;;;0.10;0.10;;;;;;;22.69;53.31;101336.41;5145699;27;20191;-40
2022/07/28 10:37:44;;;;;;;0.10;0.10;;;;;;;22.69;53.19;101345.56;5143476;27;20054;-38
2022/07/28 10:40:11;;;;;;;0.10;0.10;;;;;;;22.69;53.52;101337.22;5120132;27;20136;-37
2022/07/28 10:42:39;;;;;;;0.10;0.10;;;;;;;22.68;53.74;101332.81;5141790;27;20779;-37
2022/07/28 10:45:07;;;;;;;0.10;0.10;;;;;;;22.66;53.44;101335.03;5124720;27;20079;-38
2022/07/28 10:47:33;;;;;;;0.10;0.10;;;;;;;22.67;53.05;101333.13;5108431;27;20076;-38
2022/07/28 10:50:02;;;;;;;0.15;0.15;;;;;;;22.67;54.04;101333.13;5144309;27;20043;-38
2022/07/28 10:52:29;;;;;;;0.10;0.10;;;;;;;22.68;53.90;101330.03;5143725;27;20050;-39
2022/07/28 11:00:54;;;;;;;0.10;0.10;;;;;;;22.66;54.13;101318.38;5180215;27;20213;-40
2022/07/28 11:03:46;;;;;;;0.10;0.10;;;;;;;22.68;54.25;101313.38;5164439;27;20426;-39
2022/07/28 11:06:29;;;;;;;0.10;0.10;;;;;;;22.69;53.84;101319.75;5159909;27;21288;-39
2022/07/28 11:08:57;;;;;;;0.10;0.10;;;;;;;22.68;54.29;101320.88;5131303;27;20082;-39
2022/07/28 11:11:43;;;;;;;0.10;0.10;;;;;;;22.67;54.30;101313.69;5161175;27;20465;-38
2022/07/28 11:22:26;;;;;;;0.10;0.10;;;;;;;22.67;54.36;101322.84;5174043;27;20124;-37
2022/07/28 11:33:06;;;;;;;0.10;0.10;;;;;;;22.67;54.19;101311.72;5180221;27;20244;-37
2022/07/28 11:35:52;;;;;;;0.10;0.10;;;;;;;22.68;54.26;101307.00;5168608;27;20129;-39
2022/07/28 11:38:18;;;;;;;0.10;0.10;;;;;;;22.67;54.20;101303.41;5134542;27;20492;-37
2022/07/28 11:40:46;;;;;;;0.10;0.10;;;;;;;22.68;53.85;101301.44;5167846;27;20082;-38
2022/07/28 11:43:28;;;;;;;0.10;0.10;;;;;;;22.68;54.08;101295.91;5117364;27;20066;-39
2022/07/28 11:48:44;;;;;;;0.10;0.10;;;;;;;22.68;54.35;101301.44;5180232;27;20189;-39
2022/07/28 11:51:11;;;;;;;0.10;0.10;;;;;;;22.67;54.27;101295.06;5168090;27;20457;-37
2022/07/28 11:53:39;;;;;;;0.10;0.10;;;;;;;22.67;53.94;101295.06;5167697;27;20103;-37
2022/07/28 11:56:07;;;;;;;0.10;0.10;;;;;;;22.68;54.05;101293.94;5167604;27;20090;-39
2022/07/28 11:58:34;;;;;;;0.10;0.10;;;;;;;22.68;54.26;101293.13;5148646;27;20043;-37
2022/07/28 12:01:17;;;;;;;0.10;0.10;;;;;;;22.68;54.24;101293.94;5169807;27;20077;-36